Lipica — V7SI2 — position and weather

sailwx.info

Track history (hours):
 
Tides and Currents Weather Stations Pressure Air Temp Water Temp Dewpoint Dewpoint Depression Visibility Wind Speed Wind Dir Waves Ship Positions

Lipica

Last reported at 2017-Sep-14 20:09 UTC. Time now 2017-Nov-18 08:36 UTC.
Position N 14°30' W 061°28'.
Warning: this ship's position is months out of date.

Length 176 m; draft 6.5 m.

Type: Cargo ship. MMSI: 538006868.

Date/timePositionNaut miles runAvg speedWind from/ knotsBaromVisibWave heightAir tempDewpointWater temp
2017-Sep-14 20:09N 14°30' W 061°28'214.0
2017-Sep-14 20:00N 14°30' W 061°25'714.2
2017-Sep-14 19:31N 14°32' W 061°19'714.6
2017-Sep-14 19:00N 14°34' W 061°11'713.1
2017-Sep-14 18:30N 14°35' W 061°05'2 3.0
2017-Sep-14 18:00N 14°35' W 061°03'0 0.0
2017-Sep-14 17:24N 14°35' W 061°03'0 0.0
2017-Sep-14 17:00N 14°35' W 061°03'0 0.0
2017-Sep-14 16:30N 14°35' W 061°03'0 0.0
2017-Sep-14 16:00N 14°35' W 061°03'0 0.0
2017-Sep-14 15:30N 14°35' W 061°03'0 0.0
2017-Sep-14 15:00N 14°35' W 061°03'0 0.0
2017-Sep-14 14:30N 14°35' W 061°03'0 0.0
2017-Sep-14 14:00N 14°35' W 061°03'0 0.0
2017-Sep-14 13:30N 14°35' W 061°03'0 0.0
2017-Sep-14 13:00N 14°35' W 061°03'0 0.0
2017-Sep-14 12:30N 14°35' W 061°03'0 0.0
2017-Sep-14 11:57N 14°35' W 061°03'0 0.0
2017-Sep-14 11:30N 14°35' W 061°03'0 0.0
2017-Sep-14 11:00N 14°35' W 061°03'0 0.0
2017-Sep-14 10:30N 14°35' W 061°03'0 0.0
2017-Sep-14 09:57N 14°35' W 061°03'0 0.0
2017-Sep-14 09:30N 14°35' W 061°03'3 5.0
2017-Sep-14 09:00N 14°35' W 061°06'2 3.4
2017-Sep-14 08:30N 14°34' W 061°07'0 0.6
2017-Sep-14 08:00N 14°35' W 061°07'0 0.6
2017-Sep-14 07:29N 14°35' W 061°07'0 0.6
2017-Sep-14 06:53N 14°35' W 061°08'411.4
2017-Sep-14 06:30N 14°36' W 061°12'712.7
2017-Sep-14 05:58N 14°42' W 061°15'5413.6
2017-Sep-14 02:01N 15°33' W 061°32'013.7
2017-Sep-14 02:00N 15°33' W 061°32'2013.1
2017-Sep-14 00:30N 15°53' W 061°30'612.5
2017-Sep-14 00:00N 15°59' W 061°30'612.7
2017-Sep-13 23:30N 16°05' W 061°30'5 9.7
2017-Sep-13 22:59N 16°10' W 061°32'4 9.0
2017-Sep-13 22:30N 16°14' W 061°32'0 0.5
2017-Sep-13 22:00N 16°14' W 061°33'0 0.0
2017-Sep-13 21:30N 16°14' W 061°33'0 0.0
2017-Sep-13 21:00N 16°14' W 061°33'0 0.0
2017-Sep-13 20:30N 16°14' W 061°33'0 0.0
2017-Sep-13 20:00N 16°14' W 061°33'0 0.0
2017-Sep-13 19:30N 16°14' W 061°33'0 0.0
2017-Sep-13 18:54N 16°14' W 061°33'0 0.0
2017-Sep-13 18:30N 16°14' W 061°33'0 0.0
2017-Sep-13 18:00N 16°14' W 061°33'0 0.0
2017-Sep-13 17:30N 16°14' W 061°33'0 0.0
2017-Sep-13 17:00N 16°14' W 061°33'0 0.0
2017-Sep-13 16:30N 16°14' W 061°33'0 0.0
2017-Sep-13 15:57N 16°14' W 061°33'0 0.0
2017-Sep-13 15:27N 16°14' W 061°33'0 0.0
2017-Sep-13 15:00N 16°14' W 061°33'0 0.0
2017-Sep-13 14:30N 16°14' W 061°33'0 0.0
2017-Sep-13 14:00N 16°14' W 061°33'0 0.0
2017-Sep-13 13:30N 16°14' W 061°33'0 0.0
2017-Sep-13 13:00N 16°14' W 061°33'0 0.0
2017-Sep-13 12:30N 16°14' W 061°33'0 0.0
2017-Sep-13 11:57N 16°14' W 061°33'0 0.0
2017-Sep-13 11:30N 16°14' W 061°33'0 0.0
2017-Sep-13 11:00N 16°14' W 061°33'0 0.0
2017-Sep-13 10:30N 16°14' W 061°33'2 4.7
2017-Sep-13 10:00N 16°11' W 061°32'3 6.3
2017-Sep-13 09:30N 16°09' W 061°30'4 9.0
2017-Sep-13 09:00N 16°08' W 061°26'713.3
2017-Sep-13 08:31N 16°06' W 061°19'714.1
2017-Sep-13 08:01N 16°05' W 061°12'1813.6
2017-Sep-13 06:41N 16°09' W 060°54'  
2017-Sep-07 22:43N 36°56' W 029°12'817.6
2017-Sep-07 22:16N 37°01' W 029°04'517.6
2017-Sep-07 22:00N 37°04' W 028°59'917.7
2017-Sep-07 21:30N 37°09' W 028°50'917.8
2017-Sep-07 21:01N 37°14' W 028°41'917.8
2017-Sep-07 20:30N 37°20' W 028°32'917.8
2017-Sep-07 20:00N 37°25' W 028°23'917.6
2017-Sep-07 19:30N 37°30' W 028°14'917.6
2017-Sep-07 19:00N 37°35' W 028°05'917.5
2017-Sep-07 18:30N 37°40' W 027°56'917.1
2017-Sep-07 18:00N 37°45' W 027°48'917.9
2017-Sep-07 17:30N 37°51' W 027°39'917.9
2017-Sep-07 17:00N 37°56' W 027°30'917.4
2017-Sep-07 16:29N 38°02' W 027°21'817.5
2017-Sep-07 16:00N 38°07' W 027°12'918.1
2017-Sep-07 15:30N 38°12' W 027°03'918.1
2017-Sep-07 15:00N 38°17' W 026°53'917.4
2017-Sep-07 14:30N 38°23' W 026°44'1117.5
2017-Sep-07 13:53N 38°29' W 026°33'617.4
2017-Sep-07 13:30N 38°33' W 026°26'917.9
2017-Sep-07 13:00N 38°38' W 026°17'917.8
2017-Sep-07 12:29N 38°43' W 026°07'917.8
2017-Sep-07 11:59N 38°48' W 025°57'1417.6
2017-Sep-07 11:10N 38°56' W 025°42'  
2017-Sep-04 20:38N 49°06' W 005°11'214.1
2017-Sep-04 20:29N 49°07' W 005°08'  
Track history (hours):
 
Tides and Currents Weather Stations Pressure Air Temp Water Temp Dewpoint Dewpoint Depression Visibility Wind Speed Wind Dir Waves Ship Positions

Lipica

Last reported at 2017-Sep-14 20:09 UTC. Time now 2017-Nov-18 08:36 UTC.
Position N 14°30' W 061°28'.
Warning: this ship's position is months out of date.

Length 176 m; draft 6.5 m.

Type: Cargo ship. MMSI: 538006868.

Date/timePositionNaut miles runAvg speedWind from/ knotsBaromVisibWave heightAir tempDewpointWater temp
2017-Sep-14 20:09N 14°30' W 061°28'214.0
2017-Sep-14 20:00N 14°30' W 061°25'714.2
2017-Sep-14 19:31N 14°32' W 061°19'714.6
2017-Sep-14 19:00N 14°34' W 061°11'713.1
2017-Sep-14 18:30N 14°35' W 061°05'2 3.0
2017-Sep-14 18:00N 14°35' W 061°03'0 0.0
2017-Sep-14 17:24N 14°35' W 061°03'0 0.0
2017-Sep-14 17:00N 14°35' W 061°03'0 0.0
2017-Sep-14 16:30N 14°35' W 061°03'0 0.0
2017-Sep-14 16:00N 14°35' W 061°03'0 0.0
2017-Sep-14 15:30N 14°35' W 061°03'0 0.0
2017-Sep-14 15:00N 14°35' W 061°03'0 0.0
2017-Sep-14 14:30N 14°35' W 061°03'0 0.0
2017-Sep-14 14:00N 14°35' W 061°03'0 0.0
2017-Sep-14 13:30N 14°35' W 061°03'0 0.0
2017-Sep-14 13:00N 14°35' W 061°03'0 0.0
2017-Sep-14 12:30N 14°35' W 061°03'0 0.0
2017-Sep-14 11:57N 14°35' W 061°03'0 0.0
2017-Sep-14 11:30N 14°35' W 061°03'0 0.0
2017-Sep-14 11:00N 14°35' W 061°03'0 0.0
2017-Sep-14 10:30N 14°35' W 061°03'0 0.0
2017-Sep-14 09:57N 14°35' W 061°03'0 0.0
2017-Sep-14 09:30N 14°35' W 061°03'3 5.0
2017-Sep-14 09:00N 14°35' W 061°06'2 3.4
2017-Sep-14 08:30N 14°34' W 061°07'0 0.6
2017-Sep-14 08:00N 14°35' W 061°07'0 0.6
2017-Sep-14 07:29N 14°35' W 061°07'0 0.6
2017-Sep-14 06:53N 14°35' W 061°08'411.4
2017-Sep-14 06:30N 14°36' W 061°12'712.7
2017-Sep-14 05:58N 14°42' W 061°15'5413.6
2017-Sep-14 02:01N 15°33' W 061°32'013.7
2017-Sep-14 02:00N 15°33' W 061°32'2013.1
2017-Sep-14 00:30N 15°53' W 061°30'612.5
2017-Sep-14 00:00N 15°59' W 061°30'612.7
2017-Sep-13 23:30N 16°05' W 061°30'5 9.7
2017-Sep-13 22:59N 16°10' W 061°32'4 9.0
2017-Sep-13 22:30N 16°14' W 061°32'0 0.5
2017-Sep-13 22:00N 16°14' W 061°33'0 0.0
2017-Sep-13 21:30N 16°14' W 061°33'0 0.0
2017-Sep-13 21:00N 16°14' W 061°33'0 0.0
2017-Sep-13 20:30N 16°14' W 061°33'0 0.0
2017-Sep-13 20:00N 16°14' W 061°33'0 0.0
2017-Sep-13 19:30N 16°14' W 061°33'0 0.0
2017-Sep-13 18:54N 16°14' W 061°33'0 0.0
2017-Sep-13 18:30N 16°14' W 061°33'0 0.0
2017-Sep-13 18:00N 16°14' W 061°33'0 0.0
2017-Sep-13 17:30N 16°14' W 061°33'0 0.0
2017-Sep-13 17:00N 16°14' W 061°33'0 0.0
2017-Sep-13 16:30N 16°14' W 061°33'0 0.0
2017-Sep-13 15:57N 16°14' W 061°33'0 0.0
2017-Sep-13 15:27N 16°14' W 061°33'0 0.0
2017-Sep-13 15:00N 16°14' W 061°33'0 0.0
2017-Sep-13 14:30N 16°14' W 061°33'0 0.0
2017-Sep-13 14:00N 16°14' W 061°33'0 0.0
2017-Sep-13 13:30N 16°14' W 061°33'0 0.0
2017-Sep-13 13:00N 16°14' W 061°33'0 0.0
2017-Sep-13 12:30N 16°14' W 061°33'0 0.0
2017-Sep-13 11:57N 16°14' W 061°33'0 0.0
2017-Sep-13 11:30N 16°14' W 061°33'0 0.0
2017-Sep-13 11:00N 16°14' W 061°33'0 0.0
2017-Sep-13 10:30N 16°14' W 061°33'2 4.7
2017-Sep-13 10:00N 16°11' W 061°32'3 6.3
2017-Sep-13 09:30N 16°09' W 061°30'4 9.0
2017-Sep-13 09:00N 16°08' W 061°26'713.3
2017-Sep-13 08:31N 16°06' W 061°19'714.1
2017-Sep-13 08:01N 16°05' W 061°12'1813.6
2017-Sep-13 06:41N 16°09' W 060°54'  
2017-Sep-07 22:43N 36°56' W 029°12'817.6
2017-Sep-07 22:16N 37°01' W 029°04'517.6
2017-Sep-07 22:00N 37°04' W 028°59'917.7
2017-Sep-07 21:30N 37°09' W 028°50'917.8
2017-Sep-07 21:01N 37°14' W 028°41'917.8
2017-Sep-07 20:30N 37°20' W 028°32'917.8
2017-Sep-07 20:00N 37°25' W 028°23'917.6
2017-Sep-07 19:30N 37°30' W 028°14'917.6
2017-Sep-07 19:00N 37°35' W 028°05'917.5
2017-Sep-07 18:30N 37°40' W 027°56'917.1
2017-Sep-07 18:00N 37°45' W 027°48'917.9
2017-Sep-07 17:30N 37°51' W 027°39'917.9
2017-Sep-07 17:00N 37°56' W 027°30'917.4
2017-Sep-07 16:29N 38°02' W 027°21'817.5
2017-Sep-07 16:00N 38°07' W 027°12'918.1
2017-Sep-07 15:30N 38°12' W 027°03'918.1
2017-Sep-07 15:00N 38°17' W 026°53'917.4
2017-Sep-07 14:30N 38°23' W 026°44'1117.5
2017-Sep-07 13:53N 38°29' W 026°33'617.4
2017-Sep-07 13:30N 38°33' W 026°26'917.9
2017-Sep-07 13:00N 38°38' W 026°17'917.8
2017-Sep-07 12:29N 38°43' W 026°07'917.8
2017-Sep-07 11:59N 38°48' W 025°57'1417.6
2017-Sep-07 11:10N 38°56' W 025°42'  
2017-Sep-04 20:38N 49°06' W 005°11'214.1
2017-Sep-04 20:29N 49°07' W 005°08'  

Dump ship's entire track history